Time;durP1;ratioP1;P1;durP2;ratioP2;P2;SDS_P1;SDS_P2;PMS_P1;PMS_P2;Temp;Humidity;BMP_temperature;BMP_pressure;BME280_temperature;BME280_humidity;BME280_pressure;Samples;Min_cycle;Max_cycle;Signal;HPM_P1;HPM_P2
2022/03/19 00:01:35;;;;;;;13.53;9.40;;;9.30;95.40;;;;;;5049705;28;20290;-76
2022/03/19 00:04:01;;;;;;;8.73;6.20;;;9.20;96.00;;;;;;5041419;28;20242;-76
2022/03/19 00:06:29;;;;;;;11.00;7.40;;;9.20;94.80;;;;;;5041617;28;20831;-76
2022/03/19 00:08:56;;;;;;;11.27;8.10;;;9.10;96.20;;;;;;5034077;28;20275;-76
2022/03/19 00:11:24;;;;;;;26.13;18.80;;;9.20;94.40;;;;;;5037939;28;20215;-76
2022/03/19 00:13:51;;;;;;;6.57;4.30;;;9.10;96.00;;;;;;5044213;28;20558;-76
2022/03/19 00:16:21;;;;;;;5.27;3.70;;;9.10;95.30;;;;;;5066966;28;20198;-76
2022/03/19 00:18:48;;;;;;;8.90;6.80;;;9.10;95.90;;;;;;5054308;28;20203;-77
2022/03/19 00:21:15;;;;;;;9.50;7.13;;;9.00;96.20;;;;;;5047964;28;20250;-77
2022/03/19 00:23:42;;;;;;;19.33;13.47;;;9.00;95.80;;;;;;5050687;28;20285;-76
2022/03/19 00:26:10;;;;;;;14.13;10.50;;;8.90;97.00;;;;;;5054206;28;20290;-77
2022/03/19 00:28:37;;;;;;;8.13;6.27;;;8.90;96.10;;;;;;5037600;28;20198;-76
2022/03/19 00:31:04;;;;;;;8.43;5.53;;;8.90;96.00;;;;;;5034282;28;20232;-76
2022/03/19 00:33:33;;;;;;;19.53;13.77;;;9.00;96.40;;;;;;5034430;28;20319;-76
2022/03/19 00:36:00;;;;;;;9.87;8.87;;;8.90;96.50;;;;;;5041185;28;20256;-76
2022/03/19 00:38:27;;;;;;;9.90;7.70;;;8.90;96.30;;;;;;5034819;28;20382;-76
2022/03/19 00:40:54;;;;;;;5.87;2.93;;;8.80;97.20;;;;;;5034506;28;20275;-77
2022/03/19 00:43:21;;;;;;;6.43;4.90;;;8.70;97.10;;;;;;5047890;28;20667;-76
2022/03/19 00:45:48;;;;;;;11.80;9.40;;;8.60;98.90;;;;;;5074102;28;20283;-77
2022/03/19 00:48:15;;;;;;;3.97;2.80;;;8.60;98.40;;;;;;5057836;28;20235;-76
2022/03/19 00:50:44;;;;;;;4.83;2.83;;;8.70;97.10;;;;;;5054387;28;20235;-76
2022/03/19 00:53:11;;;;;;;6.57;5.30;;;8.70;97.60;;;;;;5053073;28;20221;-76
2022/03/19 00:55:38;;;;;;;5.27;3.73;;;8.50;99.50;;;;;;5060801;28;20237;-76
2022/03/19 00:58:05;;;;;;;4.03;3.00;;;8.60;98.20;;;;;;5063934;28;20249;-76
2022/03/19 01:00:32;;;;;;;4.50;2.50;;;8.60;98.20;;;;;;5050020;28;20235;-76
2022/03/19 01:02:59;;;;;;;4.63;2.57;;;8.60;97.10;;;;;;5043250;28;20207;-76
2022/03/19 01:05:26;;;;;;;4.37;2.80;;;8.60;97.90;;;;;;5061008;28;20195;-76
2022/03/19 01:07:56;;;;;;;4.70;3.00;;;8.70;97.40;;;;;;5057836;28;20348;-76
2022/03/19 01:10:25;;;;;;;3.60;2.40;;;8.50;98.80;;;;;;5033670;28;20243;-76
2022/03/19 01:12:53;;;;;;;4.43;2.60;;;8.60;97.80;;;;;;5033949;28;20579;-76
2022/03/19 01:15:20;;;;;;;4.77;2.73;;;8.70;97.10;;;;;;5032968;28;20644;-76
2022/03/19 01:17:48;;;;;;;3.83;2.73;;;8.70;97.00;;;;;;5057903;28;20231;-76
2022/03/19 01:20:16;;;;;;;3.57;2.50;;;8.70;97.50;;;;;;5050769;28;20294;-76
2022/03/19 01:22:45;;;;;;;3.23;2.33;;;8.70;97.30;;;;;;5037756;28;20743;-76
2022/03/19 01:25:15;;;;;;;6.10;2.53;;;8.70;96.30;;;;;;5046426;28;20721;-76
2022/03/19 01:27:44;;;;;;;4.47;2.53;;;8.80;96.10;;;;;;5057057;28;20253;-76
2022/03/19 01:30:13;;;;;;;5.40;2.73;;;8.80;96.90;;;;;;5049144;28;20234;-76
2022/03/19 01:32:40;;;;;;;4.03;2.80;;;8.80;97.30;;;;;;5052477;28;20249;-76
2022/03/19 01:35:08;;;;;;;4.00;2.60;;;8.80;96.50;;;;;;5047322;28;20248;-76
2022/03/19 01:37:36;;;;;;;6.33;3.20;;;8.80;96.30;;;;;;5043174;28;20208;-76
2022/03/19 01:40:05;;;;;;;3.63;2.80;;;8.70;98.50;;;;;;5073270;28;20231;-76
2022/03/19 01:42:35;;;;;;;5.37;2.50;;;8.80;96.30;;;;;;5073138;28;20232;-76
2022/03/19 01:45:04;;;;;;;7.30;3.30;;;8.80;96.40;;;;;;5062922;28;20226;-76
2022/03/19 01:47:33;;;;;;;4.00;3.00;;;8.70;97.30;;;;;;5052840;28;20235;-76
2022/03/19 01:50:00;;;;;;;5.33;3.07;;;8.70;98.10;;;;;;5053231;28;20258;-76
2022/03/19 01:52:28;;;;;;;5.53;3.30;;;8.60;98.60;;;;;;5045238;28;20226;-76
2022/03/19 01:54:55;;;;;;;6.07;3.73;;;8.50;99.70;;;;;;5041140;28;20315;-76
2022/03/19 01:57:25;;;;;;;6.13;3.13;;;8.60;98.90;;;;;;5045530;28;20379;-76
2022/03/19 01:59:55;;;;;;;5.50;3.47;;;8.60;99.10;;;;;;5063180;28;20307;-76
2022/03/19 02:02:24;;;;;;;4.57;3.17;;;8.50;99.70;;;;;;5066468;28;20208;-76
2022/03/19 02:04:51;;;;;;;4.87;2.80;;;8.40;99.90;;;;;;5052835;28;20205;-76
2022/03/19 02:07:18;;;;;;;5.00;2.90;;;8.40;99.90;;;;;;5052614;28;20684;-76
2022/03/19 02:09:45;;;;;;;5.47;3.10;;;8.50;99.90;;;;;;5052419;28;20713;-76
2022/03/19 02:12:12;;;;;;;4.90;2.70;;;8.50;99.90;;;;;;5052104;28;20224;-76
2022/03/19 02:14:41;;;;;;;4.93;2.70;;;8.60;99.60;;;;;;5051861;28;20261;-76
2022/03/19 02:17:10;;;;;;;5.40;2.70;;;8.40;99.90;;;;;;5052192;28;20203;-76
2022/03/19 02:19:47;;;;;;;5.30;2.90;;;8.50;99.90;;;;;;5050589;28;20293;-76
2022/03/19 02:22:15;;;;;;;5.20;2.77;;;8.40;99.90;;;;;;5032388;28;20212;-76
2022/03/19 02:27:28;;;;;;;6.03;3.40;;;8.40;99.90;;;;;;5042262;28;20207;-76
2022/03/19 02:29:56;;;;;;;4.93;3.10;;;8.30;99.90;;;;;;5051893;28;20650;-76
2022/03/19 02:32:23;;;;;;;6.00;3.40;;;8.60;99.90;;;;;;5051785;28;20586;-76
2022/03/19 02:34:50;;;;;;;4.53;2.93;;;8.40;99.90;;;;;;5058064;28;20220;-76
2022/03/19 02:37:18;;;;;;;6.33;3.40;;;8.40;99.90;;;;;;5060408;28;20724;-76
2022/03/19 02:39:46;;;;;;;5.40;3.00;;;8.30;99.90;;;;;;5052450;28;20251;-76
2022/03/19 02:42:17;;;;;;;7.03;3.40;;;8.30;99.90;;;;;;5051315;28;20289;-76
2022/03/19 02:44:44;;;;;;;6.17;3.20;;;8.30;99.90;;;;;;5051701;28;20234;-76
2022/03/19 02:47:11;;;;;;;5.90;3.47;;;8.30;99.90;;;;;;5051829;28;20286;-77
2022/03/19 02:49:38;;;;;;;6.97;3.63;;;8.30;99.90;;;;;;5036855;28;20729;-76
2022/03/19 02:52:06;;;;;;;5.63;3.70;;;8.30;99.90;;;;;;5032083;28;20231;-76
2022/03/19 02:54:33;;;;;;;6.63;3.47;;;8.10;99.90;;;;;;5031523;28;20319;-76
2022/03/19 02:57:01;;;;;;;5.37;3.70;;;8.20;99.90;;;;;;5039097;28;20292;-76
2022/03/19 02:59:30;;;;;;;5.13;3.40;;;8.10;99.90;;;;;;5038523;28;20247;-76
2022/03/19 03:01:58;;;;;;;5.57;3.33;;;8.00;99.90;;;;;;5051135;28;20251;-76
2022/03/19 03:04:25;;;;;;;4.83;3.27;;;8.00;99.90;;;;;;5039070;28;20227;-76
2022/03/19 03:06:54;;;;;;;5.63;3.60;;;8.00;99.90;;;;;;5044515;28;20255;-76
2022/03/19 03:09:23;;;;;;;6.13;3.50;;;8.00;99.90;;;;;;5051449;28;20788;-76
2022/03/19 03:11:50;;;;;;;5.37;3.40;;;8.00;99.90;;;;;;5051310;28;20239;-76
2022/03/19 03:14:20;;;;;;;5.93;3.20;;;8.00;99.90;;;;;;5051282;28;20250;-76
2022/03/19 03:16:48;;;;;;;5.60;3.53;;;7.90;99.90;;;;;;5050502;28;20286;-76
2022/03/19 03:19:16;;;;;;;5.73;3.50;;;7.80;99.90;;;;;;5038022;28;20254;-76
2022/03/19 03:21:44;;;;;;;6.07;4.03;;;7.90;99.90;;;;;;5049859;28;20210;-76
2022/03/19 03:24:12;;;;;;;5.20;3.60;;;7.90;99.90;;;;;;5037533;28;20298;-75
2022/03/19 03:26:39;;;;;;;5.27;3.43;;;7.90;99.90;;;;;;5044473;28;20669;-76
2022/03/19 03:29:07;;;;;;;10.13;3.97;;;7.90;99.90;;;;;;5035974;28;20285;-76
2022/03/19 03:31:35;;;;;;;7.87;4.37;;;7.80;99.90;;;;;;5057345;28;20299;-77
2022/03/19 03:34:03;;;;;;;6.43;3.97;;;7.80;99.90;;;;;;5055268;28;20270;-77
2022/03/19 03:36:30;;;;;;;5.70;3.80;;;7.80;99.90;;;;;;5054788;28;20218;-76
2022/03/19 03:38:57;;;;;;;7.07;3.80;;;7.70;99.90;;;;;;5047354;28;20238;-76
2022/03/19 03:41:24;;;;;;;5.57;3.90;;;7.70;99.90;;;;;;5057762;28;20240;-76
2022/03/19 03:43:51;;;;;;;6.23;4.10;;;7.70;99.90;;;;;;5035163;28;20198;-76
2022/03/19 03:46:18;;;;;;;7.17;4.27;;;7.70;99.90;;;;;;5047730;28;20280;-76
2022/03/19 03:48:46;;;;;;;7.57;3.90;;;7.60;99.90;;;;;;5075279;28;20293;-76
2022/03/19 03:51:14;;;;;;;8.73;4.17;;;7.70;99.90;;;;;;5055081;28;20966;-76
2022/03/19 03:53:44;;;;;;;6.20;4.10;;;7.60;99.90;;;;;;5035432;28;20725;-76
2022/03/19 03:56:11;;;;;;;6.40;4.07;;;7.50;99.90;;;;;;5042543;28;20258;-76
2022/03/19 03:58:39;;;;;;;7.70;4.37;;;7.50;99.90;;;;;;5048451;28;20300;-76
2022/03/19 04:01:06;;;;;;;5.80;4.03;;;7.60;99.90;;;;;;5066247;28;20212;-76
2022/03/19 04:03:33;;;;;;;11.87;4.27;;;7.50;99.90;;;;;;5072468;28;20200;-76
2022/03/19 04:06:01;;;;;;;7.33;4.47;;;7.40;99.90;;;;;;5047226;28;20237;-76
2022/03/19 04:08:28;;;;;;;7.50;4.60;;;7.40;99.90;;;;;;5054374;28;20349;-76
2022/03/19 04:10:55;;;;;;;8.67;4.13;;;7.40;99.90;;;;;;5048069;28;20198;-76
2022/03/19 04:13:22;;;;;;;7.73;4.60;;;7.30;99.90;;;;;;5060882;28;20282;-76
2022/03/19 04:15:50;;;;;;;6.77;3.87;;;7.10;99.90;;;;;;5074822;28;20317;-76
2022/03/19 04:18:17;;;;;;;7.60;4.60;;;7.20;99.90;;;;;;5060660;28;20218;-76
2022/03/19 04:20:44;;;;;;;9.23;4.90;;;7.20;99.90;;;;;;5063464;28;20289;-76
2022/03/19 04:23:12;;;;;;;7.73;4.80;;;7.20;99.90;;;;;;5063541;28;20246;-76
2022/03/19 04:25:40;;;;;;;6.90;4.50;;;7.20;99.90;;;;;;5042113;28;20226;-76
2022/03/19 04:28:07;;;;;;;6.80;4.53;;;7.10;99.90;;;;;;5043863;28;20643;-76
2022/03/19 04:30:34;;;;;;;8.30;4.97;;;7.10;99.90;;;;;;5058481;28;20220;-76
2022/03/19 04:33:04;;;;;;;9.63;5.23;;;7.10;99.90;;;;;;5054699;28;20290;-76
2022/03/19 04:38:19;;;;;;;9.03;5.20;;;7.10;99.90;;;;;;5052106;28;20341;-76
2022/03/19 04:40:47;;;;;;;8.10;5.73;;;7.00;99.90;;;;;;5054397;28;20230;-76
2022/03/19 04:43:14;;;;;;;8.17;5.27;;;6.90;99.90;;;;;;5054383;28;20243;-76
2022/03/19 04:45:42;;;;;;;9.37;5.53;;;6.80;99.90;;;;;;5053169;28;20205;-76
2022/03/19 04:48:10;;;;;;;9.43;5.40;;;6.70;99.90;;;;;;5047772;28;20252;-76
2022/03/19 04:50:38;;;;;;;8.50;5.20;;;6.70;99.90;;;;;;5033967;28;20284;-76
2022/03/19 04:53:07;;;;;;;10.30;5.97;;;6.50;99.90;;;;;;5034117;28;20235;-76
2022/03/19 04:55:36;;;;;;;8.47;5.50;;;6.50;99.90;;;;;;5034209;28;20247;-76
2022/03/19 04:58:03;;;;;;;9.43;5.73;;;6.40;99.90;;;;;;5034617;28;20239;-76
2022/03/19 05:00:32;;;;;;;11.80;6.63;;;6.40;99.90;;;;;;5054122;28;20203;-76
2022/03/19 05:02:59;;;;;;;10.23;6.23;;;6.40;99.90;;;;;;5053713;28;20289;-76
2022/03/19 05:05:26;;;;;;;10.37;5.67;;;6.40;99.90;;;;;;5036277;28;20222;-76
2022/03/19 05:07:53;;;;;;;9.77;6.33;;;6.40;99.90;;;;;;5035007;28;20249;-76
2022/03/19 05:13:07;;;;;;;11.90;6.33;;;6.50;99.90;;;;;;5061133;28;20198;-77
2022/03/19 05:15:33;;;;;;;9.70;6.10;;;6.50;99.90;;;;;;5073682;28;20234;-77
2022/03/19 05:18:00;;;;;;;10.87;6.97;;;6.40;99.90;;;;;;5072444;28;20667;-76
2022/03/19 05:20:28;;;;;;;11.80;6.80;;;6.30;99.90;;;;;;5039181;28;20255;-76
2022/03/19 05:22:55;;;;;;;10.00;6.30;;;6.50;99.90;;;;;;5041962;28;20335;-77
2022/03/19 05:25:22;;;;;;;12.83;6.50;;;6.50;99.90;;;;;;5051994;28;20281;-76
2022/03/19 05:27:49;;;;;;;10.37;6.73;;;6.30;99.90;;;;;;5053218;28;20240;-76
2022/03/19 05:30:17;;;;;;;12.20;6.80;;;6.40;99.90;;;;;;5046299;28;20285;-76
2022/03/19 05:32:45;;;;;;;13.27;7.40;;;6.30;99.90;;;;;;5036484;28;20237;-76
2022/03/19 05:35:12;;;;;;;12.07;7.40;;;6.40;99.90;;;;;;5043144;28;20304;-76
2022/03/19 05:37:40;;;;;;;12.53;7.23;;;6.40;99.90;;;;;;5063072;28;20230;-76
2022/03/19 05:40:08;;;;;;;11.53;7.40;;;6.40;99.90;;;;;;5073225;28;20250;-76
2022/03/19 05:42:36;;;;;;;12.63;7.60;;;6.50;99.90;;;;;;5060660;28;20596;-76
2022/03/19 05:45:03;;;;;;;13.87;7.80;;;6.40;99.90;;;;;;5051542;28;20288;-76
2022/03/19 05:47:32;;;;;;;11.77;7.53;;;6.40;99.90;;;;;;5052872;28;20213;-76
2022/03/19 05:49:59;;;;;;;16.00;8.23;;;6.30;99.90;;;;;;5052127;28;20719;-76
2022/03/19 05:52:26;;;;;;;13.60;8.40;;;6.40;99.90;;;;;;5038358;28;20287;-75
2022/03/19 05:54:53;;;;;;;13.13;8.50;;;6.20;99.90;;;;;;5035712;28;20242;-76
2022/03/19 05:57:20;;;;;;;14.80;8.50;;;6.20;99.90;;;;;;5062153;28;20231;-76
2022/03/19 05:59:47;;;;;;;13.53;8.77;;;6.20;99.90;;;;;;5053373;28;20267;-76
2022/03/19 06:02:14;;;;;;;15.80;8.73;;;6.00;99.90;;;;;;5056360;28;20205;-76
2022/03/19 06:04:42;;;;;;;12.90;8.03;;;6.10;99.90;;;;;;5032823;28;20297;-76
2022/03/19 06:07:09;;;;;;;12.40;8.10;;;6.20;99.90;;;;;;5032748;28;20577;-76
2022/03/19 06:09:36;;;;;;;17.43;9.23;;;6.20;99.90;;;;;;5032202;28;20279;-76
2022/03/19 06:12:03;;;;;;;15.60;9.27;;;6.20;99.90;;;;;;5032802;28;20237;-76
2022/03/19 06:14:30;;;;;;;16.23;9.70;;;6.20;99.90;;;;;;5051756;28;20239;-76
2022/03/19 06:16:56;;;;;;;15.03;9.10;;;6.00;99.90;;;;;;5052564;28;20313;-76
2022/03/19 06:19:23;;;;;;;16.60;9.40;;;6.20;99.90;;;;;;5052218;28;20702;-76
2022/03/19 06:21:52;;;;;;;17.53;10.33;;;6.30;99.90;;;;;;5052234;28;20626;-76
2022/03/19 06:24:20;;;;;;;16.77;9.73;;;6.20;99.90;;;;;;5049195;28;20248;-76
2022/03/19 06:26:47;;;;;;;16.97;9.80;;;6.10;99.90;;;;;;5051763;28;20215;-76
2022/03/19 06:29:14;;;;;;;16.43;9.83;;;6.30;99.90;;;;;;5047163;28;20728;-76
2022/03/19 06:31:41;;;;;;;19.77;10.47;;;6.10;99.90;;;;;;5036875;28;20684;-76
2022/03/19 06:34:08;;;;;;;18.53;10.20;;;6.40;99.90;;;;;;5047928;28;20233;-76
2022/03/19 06:39:21;;;;;;;16.43;9.63;;;;;;;;;;5055282;28;20204;-76
2022/03/19 06:41:48;;;;;;;17.20;10.43;;;;;;;;;;5071787;28;20292;-76
2022/03/19 06:44:15;;;;;;;16.17;10.53;;;6.60;99.90;;;;;;5072337;28;20206;-76
2022/03/19 06:46:42;;;;;;;16.00;10.43;;;6.70;99.90;;;;;;5056137;28;20255;-76
2022/03/19 06:49:09;;;;;;;17.07;10.80;;;6.70;99.90;;;;;;5044560;28;20226;-76
2022/03/19 06:51:36;;;;;;;17.33;11.00;;;6.70;99.90;;;;;;5043133;28;20293;-76
2022/03/19 06:54:04;;;;;;;18.00;11.17;;;6.80;99.90;;;;;;5050990;28;20205;-76
2022/03/19 06:56:32;;;;;;;20.50;11.77;;;6.80;99.90;;;;;;5051912;28;20236;-76
2022/03/19 06:58:59;;;;;;;19.57;11.47;;;7.00;99.90;;;;;;5050881;28;20249;-76
2022/03/19 07:01:26;;;;;;;18.27;11.33;;;7.00;99.90;;;;;;5036670;28;20227;-76
2022/03/19 07:03:53;;;;;;;20.50;11.97;;;7.10;99.90;;;;;;5051413;28;20260;-76
2022/03/19 07:06:20;;;;;;;20.10;13.00;;;7.20;99.90;;;;;;5051714;28;20235;-76
2022/03/19 07:08:47;;;;;;;18.43;11.90;;;7.40;99.90;;;;;;5051585;28;20325;-76
2022/03/19 07:11:15;;;;;;;19.40;12.40;;;7.50;99.90;;;;;;5051869;28;20873;-76
2022/03/19 07:13:43;;;;;;;18.20;12.30;;;7.50;99.90;;;;;;5050557;28;20244;-75
2022/03/19 07:16:11;;;;;;;17.70;12.17;;;7.70;99.90;;;;;;5051641;28;20318;-76
2022/03/19 07:18:38;;;;;;;20.70;13.27;;;7.80;99.90;;;;;;5051771;28;20232;-76
2022/03/19 07:21:05;;;;;;;18.53;12.43;;;7.90;99.90;;;;;;5051889;28;20223;-76
2022/03/19 07:23:31;;;;;;;21.30;13.53;;;8.00;99.90;;;;;;5051828;28;20230;-76
2022/03/19 07:25:59;;;;;;;20.83;12.83;;;7.90;99.90;;;;;;5050876;28;20206;-76
2022/03/19 07:28:27;;;;;;;19.70;12.93;;;8.00;99.90;;;;;;5040832;28;20204;-76
2022/03/19 07:30:57;;;;;;;22.00;13.67;;;8.00;99.90;;;;;;5051629;28;20211;-76
2022/03/19 07:33:26;;;;;;;20.53;13.07;;;7.90;99.90;;;;;;5062314;28;20587;-76
2022/03/19 07:35:53;;;;;;;21.20;13.53;;;7.80;99.90;;;;;;5063107;28;20223;-76
2022/03/19 07:38:20;;;;;;;21.23;13.53;;;7.80;99.90;;;;;;5059190;28;20225;-76
2022/03/19 07:43:31;;;;;;;21.50;14.23;;;8.00;99.90;;;;;;5059737;28;20302;-76
2022/03/19 07:46:00;;;;;;;21.70;14.13;;;8.20;99.90;;;;;;5051661;28;20199;-76
2022/03/19 07:48:27;;;;;;;21.33;13.83;;;8.30;99.90;;;;;;5042125;28;20287;-76
2022/03/19 07:50:53;;;;;;;25.67;13.77;;;8.40;99.90;;;;;;5032955;28;20240;-76
2022/03/19 07:53:20;;;;;;;20.97;14.30;;;8.50;99.90;;;;;;5059993;28;20305;-76
2022/03/19 07:55:48;;;;;;;22.33;15.73;;;8.70;99.90;;;;;;5052487;28;20275;-76
2022/03/19 07:58:15;;;;;;;21.80;14.53;;;8.90;99.90;;;;;;5039850;28;20229;-76
2022/03/19 08:00:42;;;;;;;23.33;15.90;;;8.90;99.90;;;;;;5035075;28;20200;-76
2022/03/19 08:03:10;;;;;;;24.63;14.50;;;9.10;99.90;;;;;;5044996;28;20244;-76
2022/03/19 08:05:37;;;;;;;24.13;14.60;;;9.20;99.90;;;;;;5067111;28;20295;-76
2022/03/19 08:08:06;;;;;;;24.17;16.00;;;9.30;99.90;;;;;;5040122;28;20699;-76
2022/03/19 08:10:33;;;;;;;25.60;16.37;;;9.00;99.90;;;;;;5031059;28;20203;-76
2022/03/19 08:13:04;;;;;;;25.57;15.77;;;9.20;99.90;;;;;;5068580;28;20298;-76
2022/03/19 08:15:32;;;;;;;25.30;16.50;;;9.20;99.90;;;;;;5054661;28;20309;-77
2022/03/19 08:17:59;;;;;;;24.53;17.37;;;9.30;99.90;;;;;;5054605;28;20671;-76
2022/03/19 08:20:28;;;;;;;22.73;16.03;;;9.10;99.90;;;;;;5055212;28;20231;-76
2022/03/19 08:22:55;;;;;;;22.63;15.80;;;9.40;99.90;;;;;;5054355;28;20719;-75
2022/03/19 08:25:22;;;;;;;21.60;15.30;;;9.20;99.90;;;;;;5053273;28;20771;-76
2022/03/19 08:27:50;;;;;;;26.23;16.30;;;9.40;99.90;;;;;;5049754;28;20294;-76
2022/03/19 08:30:19;;;;;;;26.13;17.60;;;9.50;99.90;;;;;;5053170;28;20286;-76
2022/03/19 08:32:46;;;;;;;24.67;17.03;;;9.80;99.90;;;;;;5043530;28;20204;-76
2022/03/19 08:35:28;;;;;;;28.37;16.93;;;9.50;99.90;;;;;;5050935;28;20231;-76
2022/03/19 08:40:37;;;;;;;26.13;17.07;;;9.60;99.90;;;;;;5040777;28;20200;-77
2022/03/19 08:43:04;;;;;;;27.13;17.17;;;9.50;99.90;;;;;;5047535;28;20303;-76
2022/03/19 08:45:31;;;;;;;27.27;17.87;;;9.60;99.90;;;;;;5045430;28;20230;-76
2022/03/19 08:47:58;;;;;;;25.40;17.23;;;9.80;99.90;;;;;;5050986;28;20207;-76
2022/03/19 08:50:27;;;;;;;25.67;17.23;;;9.80;99.90;;;;;;5043486;28;20702;-77
2022/03/19 08:52:58;;;;;;;28.57;18.47;;;9.60;99.90;;;;;;5063440;28;20200;-77
2022/03/19 08:55:28;;;;;;;27.13;17.47;;;10.00;99.90;;;;;;5049062;28;20230;-77
2022/03/19 08:57:55;;;;;;;26.03;17.67;;;9.70;99.90;;;;;;5048480;28;20262;-77
2022/03/19 09:00:58;;;;;;;26.50;18.47;;;9.60;99.90;;;;;;5050939;28;20234;-77
2022/03/19 09:06:50;;;;;;;25.87;17.67;;;10.20;99.90;;;;;;4931895;29;20242;-78
2022/03/19 09:09:27;;;;;;;27.17;18.53;;;10.10;99.90;;;;;;4970533;28;20312;-77
2022/03/19 09:11:54;;;;;;;26.33;18.10;;;10.50;99.90;;;;;;4956491;28;20245;-77
2022/03/19 09:14:22;;;;;;;27.60;18.07;;;10.30;99.90;;;;;;4971233;28;20268;-77
2022/03/19 09:16:49;;;;;;;27.23;19.00;;;10.30;99.90;;;;;;4971075;28;20574;-77
2022/03/19 09:19:16;;;;;;;27.40;18.43;;;10.30;99.90;;;;;;4970116;28;20789;-78
2022/03/19 09:21:43;;;;;;;29.30;18.37;;;10.10;99.90;;;;;;4970161;28;20647;-77
2022/03/19 09:24:11;;;;;;;26.93;17.57;;;10.40;99.90;;;;;;4970855;28;20203;-77
2022/03/19 09:26:39;;;;;;;28.60;18.00;;;10.70;99.90;;;;;;4971936;28;20229;-77
2022/03/19 09:29:06;;;;;;;32.67;19.90;;;10.40;99.90;;;;;;4972442;28;20208;-78
2022/03/19 09:31:33;;;;;;;30.63;18.57;;;10.70;99.90;;;;;;4974286;28;20268;-78
2022/03/19 09:34:00;;;;;;;29.80;19.03;;;10.40;99.90;;;;;;4971314;28;20198;-77
2022/03/19 09:36:27;;;;;;;28.60;19.87;;;10.90;99.90;;;;;;4957036;28;20281;-77
2022/03/19 09:38:54;;;;;;;28.70;20.10;;;11.00;99.90;;;;;;4969026;28;20287;-77
2022/03/19 09:41:21;;;;;;;29.23;20.67;;;11.30;99.90;;;;;;4971613;28;20221;-77
2022/03/19 09:43:49;;;;;;;28.67;19.70;;;11.60;99.90;;;;;;5010248;28;20208;-76
2022/03/19 09:46:17;;;;;;;29.20;19.63;;;11.20;99.90;;;;;;5043351;28;20250;-80
2022/03/19 09:48:44;;;;;;;29.77;19.23;;;11.30;99.90;;;;;;5037771;28;20201;-76
2022/03/19 09:51:11;;;;;;;28.97;20.43;;;11.40;99.90;;;;;;5042154;28;20238;-75
2022/03/19 09:53:38;;;;;;;29.37;19.30;;;11.80;99.90;;;;;;5046423;28;20207;-76
2022/03/19 09:56:05;;;;;;;28.93;20.70;;;12.40;99.90;;;;;;5048237;28;20702;-76
2022/03/19 09:58:33;;;;;;;27.67;20.20;;;12.70;99.90;;;;;;5051548;28;20278;-76
2022/03/19 10:01:06;;;;;;;29.83;20.83;;;12.80;99.90;;;;;;5053913;28;20648;-76
2022/03/19 10:03:39;;;;;;;27.67;20.17;;;12.10;99.90;;;;;;5043344;28;20690;-75
2022/03/19 10:08:57;;;;;;;30.70;21.37;;;11.90;99.90;;;;;;5045350;28;20741;-75
2022/03/19 10:11:25;;;;;;;27.50;20.90;;;12.10;99.90;;;;;;5051946;28;20230;-76
2022/03/19 10:13:52;;;;;;;28.23;21.13;;;12.40;99.90;;;;;;5065340;28;20264;-76
2022/03/19 10:16:25;;;;;;;30.60;21.03;;;12.20;99.90;;;;;;5052267;28;20281;-76
2022/03/19 10:18:57;;;;;;;31.03;21.83;;;12.70;99.90;;;;;;5052593;28;20200;-77
2022/03/19 10:21:25;;;;;;;28.40;21.03;;;12.60;99.90;;;;;;5052251;28;20292;-77
2022/03/19 10:23:52;;;;;;;28.40;21.53;;;12.50;99.90;;;;;;5052357;28;20619;-75
2022/03/19 10:26:27;;;;;;;31.43;21.97;;;12.60;99.90;;;;;;5040136;28;20295;-77
2022/03/19 10:28:59;;;;;;;29.67;20.80;;;12.90;99.90;;;;;;5046700;28;20235;-76
2022/03/19 10:31:35;;;;;;;28.50;21.33;;;12.90;99.90;;;;;;5046344;28;20287;-77
2022/03/19 10:34:03;;;;;;;29.87;21.90;;;13.40;99.90;;;;;;5046912;28;20361;-76
2022/03/19 10:36:32;;;;;;;31.37;22.37;;;13.60;99.90;;;;;;5039197;28;20225;-75
2022/03/19 10:38:59;;;;;;;29.40;22.07;;;13.60;99.90;;;;;;5042139;28;20663;-75
2022/03/19 10:41:27;;;;;;;30.50;22.17;;;13.50;99.90;;;;;;5040955;28;20200;-75
2022/03/19 10:43:54;;;;;;;33.30;22.30;;;13.40;99.90;;;;;;5044276;28;20235;-75
2022/03/19 10:46:21;;;;;;;30.13;22.33;;;13.40;99.90;;;;;;5050183;28;20280;-75
2022/03/19 10:48:54;;;;;;;32.40;22.47;;;13.80;99.90;;;;;;5049155;28;20235;-75
2022/03/19 10:51:21;;;;;;;29.43;22.60;;;14.40;99.90;;;;;;5051841;28;20199;-75
2022/03/19 10:53:51;;;;;;;35.83;22.07;;;14.80;99.90;;;;;;5043823;28;20226;-74
2022/03/19 10:56:18;;;;;;;34.07;23.43;;;14.20;99.90;;;;;;5048590;28;20208;-75
2022/03/19 10:58:45;;;;;;;30.50;23.30;;;13.80;99.90;;;;;;5039095;28;20635;-75
2022/03/19 11:01:13;;;;;;;30.50;23.27;;;14.30;99.90;;;;;;5034358;28;20228;-77
2022/03/19 11:03:42;;;;;;;33.67;23.50;;;13.90;99.90;;;;;;5047780;28;20623;-77
2022/03/19 11:06:11;;;;;;;31.43;23.03;;;14.50;99.90;;;;;;5044344;28;20207;-78
2022/03/19 11:08:43;;;;;;;31.60;23.53;;;14.80;99.90;;;;;;5044307;28;20234;-76
2022/03/19 11:11:15;;;;;;;33.73;23.70;;;14.60;99.90;;;;;;5048489;28;20223;-75
2022/03/19 11:13:46;;;;;;;32.67;23.93;;;14.40;99.90;;;;;;5043750;28;20656;-74
2022/03/19 11:16:14;;;;;;;31.20;23.63;;;14.20;99.90;;;;;;5036519;28;20201;-74
2022/03/19 11:18:43;;;;;;;31.67;24.23;;;14.40;99.90;;;;;;5033960;28;20244;-74
2022/03/19 11:21:14;;;;;;;33.60;24.73;;;14.70;99.90;;;;;;5040512;28;20286;-75
2022/03/19 11:23:48;;;;;;;31.20;23.30;;;13.50;99.90;;;;;;5048137;28;20648;-74
2022/03/19 11:26:22;;;;;;;34.60;23.93;;;13.90;99.90;;;;;;5049461;28;20286;-75
2022/03/19 11:28:49;;;;;;;33.27;24.30;;;14.50;99.90;;;;;;5052688;28;20644;-75
2022/03/19 11:31:24;;;;;;;33.37;24.60;;;14.00;99.90;;;;;;5041679;28;20329;-75
2022/03/19 11:33:51;;;;;;;34.90;24.63;;;14.40;99.90;;;;;;5048514;28;20286;-75
2022/03/19 11:36:19;;;;;;;30.37;22.97;;;14.40;99.90;;;;;;5051944;28;20290;-75
2022/03/19 11:38:51;;;;;;;35.37;25.10;;;13.90;99.90;;;;;;5049912;28;20290;-75
2022/03/19 11:41:25;;;;;;;33.03;24.53;;;13.60;99.90;;;;;;5039755;28;20206;-74
2022/03/19 11:44:12;;;;;;;34.00;25.70;;;13.70;99.90;;;;;;5042923;28;20199;-75
2022/03/19 11:46:58;;;;;;;36.47;26.60;;;13.60;99.90;;;;;;5042981;28;20463;-75
2022/03/19 11:49:50;;;;;;;34.57;26.20;;;13.30;99.90;;;;;;5050449;28;20238;-74
2022/03/19 11:52:39;;;;;;;33.33;24.90;;;13.70;99.90;;;;;;5050633;28;20198;-74
2022/03/19 11:55:09;;;;;;;32.93;25.43;;;14.40;99.90;;;;;;5036880;28;20292;-74
2022/03/19 11:57:50;;;;;;;34.87;25.57;;;14.10;99.90;;;;;;5043839;28;20219;-75
2022/03/19 12:00:18;;;;;;;36.17;25.17;;;14.00;99.90;;;;;;5057483;28;20233;-75
2022/03/19 12:03:05;;;;;;;34.27;24.77;;;13.90;99.90;;;;;;5055714;28;20248;-75
2022/03/19 12:05:32;;;;;;;41.83;26.93;;;13.70;99.90;;;;;;5038936;28;20235;-74
2022/03/19 12:08:09;;;;;;;35.87;24.40;;;13.70;99.90;;;;;;5038119;28;20295;-75
2022/03/19 12:10:54;;;;;;;36.90;25.93;;;13.60;99.90;;;;;;5042871;28;20299;-75
2022/03/19 12:13:42;;;;;;;33.30;24.80;;;13.70;99.90;;;;;;5048571;28;20704;-75
2022/03/19 12:16:12;;;;;;;37.03;26.67;;;13.70;99.90;;;;;;5045234;28;20212;-74
2022/03/19 12:18:48;;;;;;;36.20;25.47;;;13.70;99.90;;;;;;5036248;28;20662;-75
2022/03/19 12:21:21;;;;;;;35.63;24.67;;;14.20;99.90;;;;;;5045127;28;20210;-75
2022/03/19 12:24:19;;;;;;;34.50;25.70;;;14.30;99.90;;;;;;5046819;28;20207;-74
2022/03/19 12:26:49;;;;;;;37.80;25.37;;;14.20;99.90;;;;;;5036702;28;20208;-75
2022/03/19 12:29:17;;;;;;;35.43;26.77;;;13.90;99.90;;;;;;5046957;28;20207;-74
2022/03/19 12:31:47;;;;;;;35.67;26.17;;;14.20;99.90;;;;;;5053666;28;20262;-75
2022/03/19 12:34:16;;;;;;;36.77;27.07;;;14.60;99.90;;;;;;5045060;28;20291;-74
2022/03/19 12:36:43;;;;;;;35.03;25.93;;;14.40;99.90;;;;;;5078846;28;20200;-75
2022/03/19 12:39:12;;;;;;;37.53;27.03;;;14.20;99.90;;;;;;5049699;28;20238;-75
2022/03/19 12:41:40;;;;;;;39.00;26.93;;;14.40;99.90;;;;;;5042602;28;20279;-75
2022/03/19 12:44:10;;;;;;;38.90;27.47;;;14.40;99.90;;;;;;5037574;28;20228;-74
2022/03/19 12:46:38;;;;;;;35.50;26.57;;;14.40;99.90;;;;;;5064039;28;20261;-76
2022/03/19 12:49:07;;;;;;;37.70;26.67;;;14.20;99.90;;;;;;5044236;28;20227;-76
2022/03/19 12:51:36;;;;;;;35.70;26.37;;;13.90;99.90;;;;;;5053136;28;20324;-74
2022/03/19 12:54:18;;;;;;;36.30;26.47;;;14.00;99.90;;;;;;5049274;28;20204;-75
2022/03/19 12:56:46;;;;;;;38.17;27.17;;;14.00;99.90;;;;;;5034218;28;20231;-74
2022/03/19 12:59:18;;;;;;;39.57;27.67;;;14.20;99.90;;;;;;5033783;28;20215;-76
2022/03/19 13:01:45;;;;;;;38.30;27.30;;;14.00;99.90;;;;;;5033574;28;20679;-76
2022/03/19 13:04:20;;;;;;;39.00;26.33;;;13.60;99.90;;;;;;5034217;28;20307;-75
2022/03/19 13:06:47;;;;;;;36.53;25.43;;;13.50;99.90;;;;;;5053813;28;20199;-74
2022/03/19 13:09:15;;;;;;;36.17;26.93;;;13.40;99.90;;;;;;5053620;28;20260;-75
2022/03/19 13:11:44;;;;;;;37.90;27.87;;;13.50;99.90;;;;;;5053893;28;20208;-76
2022/03/19 13:14:14;;;;;;;38.90;27.90;;;13.60;99.90;;;;;;5053510;28;20200;-74